Armstrong, Illinois
Current Conditions -  °F | °C
As of 10:10 PM on Thursday 20 Nov 2014 (Local Time) from KTIP Reporting Station
Clear Clear  
Wind Chill: 10°   Ceiling: Unl
Heat Index: 19°   Visibility: 10mi
Dew Point: 10°   Wind: 7mph
Humidity: 68%   Direction: 320°NW
Pressure: 30.3"   Gusts: NA
Location:  40.31°N, 87.88°W
Report Text: KTIP 210410Z AUTO 32006KT 10SM CLR M07/M12 A3030 RMK AO2 T10731123
Loading
Personal Weather Stations






























Interactive Weather Map New forecast layout! Learn more

10-Day Weather Forecast

Advertisements
Track Severe Weather on mobile